createdAt,value
2017-07-06T00:00:57.283Z,53.19
2017-07-06T00:03:24.425Z,53.24
2017-07-06T00:05:52.025Z,53.27
2017-07-06T00:09:52.161Z,53.35
2017-07-06T00:12:19.747Z,53.37
2017-07-06T00:14:47.324Z,53.38
2017-07-06T00:17:15.021Z,53.41
2017-07-06T00:19:42.623Z,53.29
2017-07-06T00:22:10.213Z,53.24
2017-07-06T00:24:37.890Z,53.20
2017-07-06T00:27:05.491Z,53.30
2017-07-06T00:29:32.637Z,53.34
2017-07-06T00:32:00.268Z,53.35
2017-07-06T00:34:27.401Z,53.32
2017-07-06T00:36:54.570Z,53.24
2017-07-06T00:39:21.769Z,53.18
2017-07-06T00:41:49.354Z,53.16
2017-07-06T00:44:16.516Z,53.21
2017-07-06T00:46:43.708Z,53.31
2017-07-06T00:49:11.299Z,53.33
2017-07-06T00:51:38.446Z,53.49
2017-07-06T00:54:05.646Z,53.44
2017-07-06T00:56:32.821Z,53.56
2017-07-06T00:58:59.956Z,53.71
2017-07-06T01:04:32.246Z,54.12
2017-07-06T01:06:59.383Z,54.24
2017-07-06T01:09:26.560Z,54.29
2017-07-06T01:11:54.184Z,54.34
2017-07-06T01:14:21.482Z,54.36
2017-07-06T01:16:48.625Z,54.38
2017-07-06T01:19:15.796Z,54.42
2017-07-06T01:21:42.919Z,54.40
2017-07-06T01:24:10.047Z,54.46
2017-07-06T01:27:25.095Z,54.65
2017-07-06T01:31:20.278Z,54.49
2017-07-06T01:33:47.455Z,54.53
2017-07-06T01:38:01.127Z,54.55
2017-07-06T01:40:28.301Z,54.57
2017-07-06T01:42:55.465Z,54.69
2017-07-06T01:47:29.157Z,54.67
2017-07-06T01:51:22.772Z,54.74
2017-07-06T01:57:33.053Z,54.81
2017-07-06T02:01:17.692Z,54.82
2017-07-06T02:03:44.878Z,54.86
2017-07-06T02:06:12.215Z,54.69
2017-07-06T02:10:46.941Z,54.85
2017-07-06T02:13:14.074Z,54.85
2017-07-06T02:15:41.257Z,54.79
2017-07-06T02:20:29.659Z,54.75
2017-07-06T02:22:56.928Z,54.55
2017-07-06T02:25:24.096Z,54.39
2017-07-06T02:30:31.411Z,54.80
2017-07-06T02:34:36.834Z,54.86
2017-07-06T02:39:27.263Z,54.74
2017-07-06T02:44:20.789Z,54.62
2017-07-06T02:46:48.005Z,54.61
2017-07-06T02:53:23.186Z,54.54
2017-07-06T03:02:06.575Z,54.55
2017-07-06T03:04:33.788Z,54.50
2017-07-06T03:07:00.973Z,54.57
2017-07-06T03:09:28.175Z,54.58
2017-07-06T03:20:39.484Z,54.58
2017-07-06T03:23:06.694Z,54.60
2017-07-06T03:26:52.087Z,54.60
2017-07-06T03:29:19.245Z,54.49
2017-07-06T03:31:46.394Z,54.36
2017-07-06T03:37:38.397Z,54.01
2017-07-06T03:45:39.426Z,54.24
2017-07-06T03:54:49.718Z,55.03
2017-07-06T03:57:16.864Z,55.54
2017-07-06T04:18:12.616Z,57.02
2017-07-06T04:26:01.234Z,57.15
2017-07-06T04:34:28.767Z,56.79
2017-07-06T04:36:55.922Z,56.42
2017-07-06T04:39:23.048Z,56.38
2017-07-06T04:41:50.234Z,56.39
2017-07-06T04:50:46.499Z,56.80
2017-07-06T04:53:13.645Z,57.12
2017-07-06T05:00:17.063Z,57.37
2017-07-06T05:03:54.760Z,57.14
2017-07-06T05:08:48.139Z,57.11
2017-07-06T05:16:43.427Z,57.12
2017-07-06T05:23:06.838Z,56.83
2017-07-06T05:35:00.779Z,56.61
2017-07-06T05:41:07.604Z,56.62
2017-07-06T05:43:34.807Z,56.50
2017-07-06T05:46:01.934Z,56.44
2017-07-06T05:49:24.863Z,56.36
2017-07-06T05:54:07.170Z,56.26
2017-07-06T05:59:23.550Z,56.21
2017-07-06T06:03:36.572Z,56.13
2017-07-06T06:06:03.752Z,56.09
2017-07-06T06:08:30.927Z,56.10
2017-07-06T06:10:58.075Z,56.08
2017-07-06T06:14:13.755Z,56.04
2017-07-06T06:16:40.887Z,55.96
2017-07-06T06:19:08.035Z,55.93
2017-07-06T06:21:35.219Z,55.97
2017-07-06T06:25:21.221Z,55.87
2017-07-06T06:27:48.434Z,55.92
2017-07-06T06:30:15.578Z,55.83
2017-07-06T06:32:42.701Z,55.85
2017-07-06T06:35:09.871Z,55.82
2017-07-06T06:37:37.015Z,55.77
2017-07-06T06:43:19.037Z,55.68
2017-07-06T06:45:46.203Z,55.67
2017-07-06T06:51:42.455Z,55.60
2017-07-06T06:56:32.835Z,55.56
2017-07-06T07:06:03.448Z,55.53
2017-07-06T07:08:30.574Z,55.47
2017-07-06T07:10:57.711Z,55.43
2017-07-06T07:13:24.925Z,55.41
2017-07-06T07:25:30.874Z,55.25
2017-07-06T07:27:58.094Z,55.19
2017-07-06T07:30:25.222Z,55.22
2017-07-06T07:32:52.398Z,55.21
2017-07-06T07:37:58.084Z,55.18
2017-07-06T07:40:25.231Z,55.13
2017-07-06T07:45:03.136Z,55.10
2017-07-06T07:52:16.757Z,55.08
2017-07-06T07:54:43.887Z,55.06
2017-07-06T07:59:15.428Z,55.02
2017-07-06T08:05:22.772Z,54.91
2017-07-06T08:07:49.889Z,54.87
2017-07-06T08:10:17.026Z,54.85
2017-07-06T08:12:44.194Z,54.82
2017-07-06T08:16:49.914Z,54.80
2017-07-06T08:19:59.300Z,54.75
2017-07-06T08:22:26.433Z,54.71
2017-07-06T08:24:53.586Z,54.69
2017-07-06T08:27:20.760Z,54.71
2017-07-06T08:29:47.903Z,54.73
2017-07-06T08:32:15.094Z,54.67
2017-07-06T08:34:42.249Z,54.71
2017-07-06T08:40:07.345Z,54.66
2017-07-06T08:49:34.314Z,54.70
2017-07-06T08:52:01.543Z,54.70
2017-07-06T08:54:28.674Z,54.71
2017-07-06T09:00:39.376Z,54.75
2017-07-06T09:12:12.954Z,54.78
2017-07-06T09:14:40.114Z,54.80
2017-07-06T09:17:07.249Z,54.83
2017-07-06T09:20:18.799Z,54.82
2017-07-06T09:27:25.042Z,54.81
2017-07-06T09:29:52.167Z,54.76
2017-07-06T09:32:19.296Z,54.82
2017-07-06T09:34:46.474Z,54.86
2017-07-06T09:37:13.605Z,54.88
2017-07-06T09:40:43.371Z,54.88
2017-07-06T09:43:10.512Z,54.88
2017-07-06T09:49:36.924Z,54.86
2017-07-06T09:52:55.339Z,54.85
2017-07-06T09:55:22.504Z,54.84
2017-07-06T09:57:49.657Z,54.82
2017-07-06T10:00:16.821Z,54.80
2017-07-06T10:03:04.626Z,54.79
2017-07-06T10:05:31.767Z,54.78
2017-07-06T10:07:58.914Z,54.77
2017-07-06T10:12:42.567Z,54.76
2017-07-06T10:17:11.058Z,54.74
2017-07-06T10:19:38.257Z,54.71
2017-07-06T10:22:05.400Z,54.70
2017-07-06T10:24:32.519Z,54.68
2017-07-06T10:28:33.871Z,54.66
2017-07-06T10:35:27.256Z,54.64
2017-07-06T10:39:12.324Z,54.63
2017-07-06T10:41:39.522Z,54.64
2017-07-06T10:46:59.826Z,54.62
2017-07-06T10:49:26.966Z,54.59
2017-07-06T10:51:54.107Z,54.63
2017-07-06T10:54:21.291Z,54.61
2017-07-06T10:56:48.427Z,54.58
2017-07-06T10:59:15.586Z,54.61
2017-07-06T11:01:42.776Z,54.62
2017-07-06T11:04:09.913Z,54.61
2017-07-06T11:06:37.054Z,54.60
2017-07-06T11:12:52.628Z,54.61
2017-07-06T11:15:19.773Z,54.62
2017-07-06T11:17:46.919Z,54.62
2017-07-06T11:20:14.090Z,54.61
2017-07-06T11:24:42.516Z,54.58
2017-07-06T11:27:09.715Z,54.59
2017-07-06T11:29:36.847Z,54.58
2017-07-06T11:32:22.050Z,54.58
2017-07-06T11:35:18.872Z,54.56
2017-07-06T11:40:19.715Z,54.52
2017-07-06T11:54:43.845Z,54.49
2017-07-06T11:57:10.981Z,54.48
2017-07-06T12:00:56.357Z,54.46
2017-07-06T12:03:23.501Z,54.46
2017-07-06T12:05:50.631Z,54.45
2017-07-06T12:15:18.824Z,54.44
2017-07-06T12:17:45.960Z,54.44
2017-07-06T12:20:13.093Z,54.44
2017-07-06T12:24:17.037Z,54.47
2017-07-06T12:26:44.159Z,54.46
2017-07-06T12:29:11.358Z,54.50
2017-07-06T12:31:38.569Z,54.48
2017-07-06T12:34:05.697Z,54.51
2017-07-06T12:36:32.828Z,54.51
2017-07-06T12:40:46.764Z,54.51
2017-07-06T12:45:22.071Z,54.49
2017-07-06T12:47:49.265Z,54.51
2017-07-06T12:50:16.407Z,54.46
2017-07-06T12:52:43.542Z,54.48
2017-07-06T12:57:59.554Z,54.44
2017-07-06T13:00:26.698Z,54.47
2017-07-06T13:02:53.841Z,54.46
2017-07-06T13:06:00.846Z,54.46
2017-07-06T13:10:56.585Z,54.46
2017-07-06T13:14:26.847Z,54.48
2017-07-06T13:16:53.986Z,54.47
2017-07-06T13:20:44.374Z,54.49
2017-07-06T13:29:56.223Z,54.49
2017-07-06T13:35:35.251Z,54.50
2017-07-06T13:38:02.388Z,54.51
2017-07-06T13:41:17.879Z,54.50
2017-07-06T13:43:45.023Z,54.51
2017-07-06T13:46:12.209Z,54.51
2017-07-06T13:48:39.396Z,54.54
2017-07-06T13:51:07.006Z,54.54
2017-07-06T13:53:34.608Z,54.55
2017-07-06T13:58:10.475Z,54.54
2017-07-06T14:00:37.611Z,54.56
2017-07-06T14:03:43.653Z,54.55
2017-07-06T14:06:10.791Z,54.58
2017-07-06T14:09:08.122Z,54.53
2017-07-06T14:11:57.374Z,54.52
2017-07-06T14:14:24.567Z,54.51
2017-07-06T14:18:29.564Z,54.55
2017-07-06T14:20:56.747Z,54.51
2017-07-06T14:23:23.877Z,54.52
2017-07-06T14:28:12.041Z,54.54
2017-07-06T14:30:39.164Z,54.55
2017-07-06T14:33:06.291Z,54.55
2017-07-06T14:38:06.970Z,54.51
2017-07-06T14:40:34.108Z,54.56
2017-07-06T14:43:01.238Z,54.52
2017-07-06T14:45:29.358Z,54.53
2017-07-06T14:48:50.665Z,54.53
2017-07-06T14:51:17.840Z,54.52
2017-07-06T14:53:44.976Z,54.52
2017-07-06T14:56:12.123Z,54.55
2017-07-06T14:58:39.327Z,54.52
2017-07-06T15:03:05.398Z,54.58
2017-07-06T15:05:32.592Z,54.55
2017-07-06T15:07:59.868Z,54.55
2017-07-06T15:11:27.424Z,54.48
2017-07-06T15:18:16.695Z,54.52
2017-07-06T15:20:44.287Z,54.51
2017-07-06T15:23:11.403Z,54.51
2017-07-06T15:25:38.587Z,54.50
2017-07-06T15:28:05.726Z,54.47
2017-07-06T15:30:33.296Z,54.47
2017-07-06T15:33:00.466Z,54.48
2017-07-06T15:35:27.620Z,54.46
2017-07-06T15:42:49.888Z,54.44
2017-07-06T15:54:29.287Z,54.39
2017-07-06T15:58:09.423Z,54.33
2017-07-06T16:01:35.765Z,54.36
2017-07-06T16:04:02.889Z,54.38
2017-07-06T16:06:30.019Z,54.36
2017-07-06T16:08:57.200Z,54.31
2017-07-06T16:12:17.161Z,54.33
2017-07-06T16:14:44.805Z,54.33
2017-07-06T16:17:11.957Z,54.29
2017-07-06T16:19:39.216Z,54.23
2017-07-06T16:22:06.367Z,54.22
2017-07-06T16:24:33.958Z,54.23
2017-07-06T16:27:01.562Z,54.20
2017-07-06T16:29:28.744Z,54.20
2017-07-06T16:33:59.617Z,54.23
2017-07-06T16:36:26.774Z,54.25
2017-07-06T16:38:53.926Z,54.26
2017-07-06T16:41:21.076Z,54.23
2017-07-06T16:43:48.241Z,54.21
2017-07-06T16:46:15.393Z,54.16
2017-07-06T16:55:01.326Z,53.99
2017-07-06T16:57:28.455Z,53.98
2017-07-06T16:59:55.595Z,53.96
2017-07-06T17:02:23.248Z,53.98
2017-07-06T17:04:50.376Z,53.98
2017-07-06T17:07:17.508Z,54.04
2017-07-06T17:09:44.693Z,54.04
2017-07-06T17:12:11.816Z,54.03
2017-07-06T17:19:55.841Z,54.05
2017-07-06T17:22:22.955Z,54.07
2017-07-06T17:26:41.309Z,54.06
2017-07-06T17:30:13.955Z,54.07
2017-07-06T17:32:41.694Z,54.01
2017-07-06T17:35:37.666Z,54.09
2017-07-06T17:38:05.012Z,54.09
2017-07-06T17:40:32.375Z,54.11
2017-07-06T17:44:28.229Z,54.17
2017-07-06T17:48:30.628Z,54.27
2017-07-06T17:50:57.829Z,54.34
2017-07-06T17:53:25.094Z,54.34
2017-07-06T17:55:52.347Z,54.38
2017-07-06T17:59:18.583Z,54.43
2017-07-06T18:01:45.723Z,54.42
2017-07-06T18:04:12.848Z,54.42
2017-07-06T18:06:40.501Z,54.43
2017-07-06T18:09:07.628Z,54.50
2017-07-06T18:11:35.219Z,54.60
2017-07-06T18:14:02.419Z,54.62
2017-07-06T18:16:29.553Z,54.74
2017-07-06T18:18:56.698Z,54.74
2017-07-06T18:21:24.345Z,54.74
2017-07-06T18:23:51.462Z,54.75
2017-07-06T18:27:49.389Z,54.79
2017-07-06T18:30:16.535Z,54.81
2017-07-06T18:32:43.655Z,54.81
2017-07-06T18:35:10.828Z,54.80
2017-07-06T18:37:38.431Z,54.79
2017-07-06T18:40:05.566Z,54.78
2017-07-06T18:42:32.728Z,54.82
2017-07-06T18:44:59.985Z,54.90
2017-07-06T18:47:27.140Z,54.88
2017-07-06T18:49:54.304Z,55.00
2017-07-06T18:52:21.888Z,55.03
2017-07-06T18:55:31.418Z,55.15
2017-07-06T18:57:58.572Z,55.18
2017-07-06T19:00:26.152Z,55.24
2017-07-06T19:02:53.338Z,55.26
2017-07-06T19:05:20.472Z,55.20
2017-07-06T19:07:47.621Z,55.10
2017-07-06T19:10:14.827Z,55.06
2017-07-06T19:12:42.413Z,55.04
2017-07-06T19:15:09.545Z,55.04
2017-07-06T19:17:36.710Z,54.73
2017-07-06T19:20:04.320Z,53.79
2017-07-06T19:22:31.906Z,53.53
2017-07-06T19:24:59.104Z,53.05
2017-07-06T19:27:26.232Z,52.79
2017-07-06T19:32:19.660Z,52.60
2017-07-06T19:34:46.811Z,52.59
2017-07-06T19:37:13.943Z,52.70
2017-07-06T19:39:41.566Z,52.69
2017-07-06T19:42:08.693Z,52.70
2017-07-06T19:44:35.817Z,52.85
2017-07-06T19:47:03.030Z,52.86
2017-07-06T19:49:47.306Z,52.70
2017-07-06T19:52:14.486Z,52.73
2017-07-06T19:54:41.651Z,52.69
2017-07-06T19:58:19.104Z,52.76
2017-07-06T20:00:46.243Z,52.74
2017-07-06T20:06:03.826Z,52.88
2017-07-06T20:08:30.968Z,52.87
2017-07-06T20:10:58.102Z,52.86
2017-07-06T20:13:25.764Z,52.85
2017-07-06T20:15:53.009Z,52.84
2017-07-06T20:18:20.138Z,52.92
2017-07-06T20:20:47.316Z,52.94
2017-07-06T20:23:14.444Z,52.91
2017-07-06T20:25:42.348Z,53.00
2017-07-06T20:28:10.091Z,52.98
2017-07-06T20:30:37.231Z,52.86
2017-07-06T20:33:04.368Z,52.69
2017-07-06T20:35:31.575Z,52.76
2017-07-06T20:37:58.706Z,52.80
2017-07-06T20:40:25.825Z,52.68
2017-07-06T20:42:53.014Z,52.69
2017-07-06T20:45:20.152Z,52.59
2017-07-06T20:47:47.302Z,52.46
2017-07-06T20:50:14.550Z,52.43
2017-07-06T20:55:23.853Z,52.23
2017-07-06T21:00:30.477Z,52.13
2017-07-06T21:02:57.628Z,52.19
2017-07-06T21:05:25.002Z,52.06
2017-07-06T21:07:52.258Z,52.01
2017-07-06T21:12:00.479Z,52.01
2017-07-06T21:14:27.833Z,52.06
2017-07-06T21:16:54.970Z,52.10
2017-07-06T21:19:22.644Z,52.17
2017-07-06T21:21:49.848Z,52.20
2017-07-06T21:24:17.147Z,52.25
2017-07-06T21:26:44.274Z,52.29
2017-07-06T21:29:11.451Z,52.33
2017-07-06T21:31:38.574Z,52.34
2017-07-06T21:34:05.698Z,52.31
2017-07-06T21:36:32.995Z,52.24
2017-07-06T21:40:00.104Z,52.26
2017-07-06T21:43:30.385Z,52.27
2017-07-06T21:45:57.521Z,52.26
2017-07-06T21:48:24.662Z,52.21
2017-07-06T21:50:51.847Z,52.24
2017-07-06T21:53:18.968Z,52.24
2017-07-06T21:55:46.091Z,52.39
2017-07-06T21:58:13.287Z,52.52
2017-07-06T22:00:40.433Z,52.65
2017-07-06T22:05:52.836Z,52.65
2017-07-06T22:08:19.971Z,52.65
2017-07-06T22:11:51.323Z,52.59
2017-07-06T22:14:18.464Z,52.54
2017-07-06T22:19:49.282Z,52.47
2017-07-06T22:23:26.212Z,52.52
2017-07-06T22:25:53.418Z,52.55
2017-07-06T22:28:20.556Z,52.68
2017-07-06T22:30:47.713Z,52.74
2017-07-06T22:35:08.931Z,52.83
2017-07-06T22:37:36.078Z,52.92
2017-07-06T22:40:03.218Z,52.92
2017-07-06T22:42:30.393Z,52.94
2017-07-06T22:44:57.518Z,52.92
2017-07-06T22:47:24.650Z,52.89
2017-07-06T22:50:08.798Z,52.84
2017-07-06T22:52:36.495Z,52.78
2017-07-06T22:55:03.606Z,52.84
2017-07-06T22:57:31.011Z,53.09
2017-07-06T22:59:58.157Z,53.31
2017-07-06T23:04:59.927Z,53.68
2017-07-06T23:07:27.048Z,53.56
2017-07-06T23:09:54.190Z,53.43
2017-07-06T23:12:21.356Z,53.29
2017-07-06T23:14:48.505Z,53.54
2017-07-06T23:17:15.645Z,54.00
2017-07-06T23:19:42.847Z,54.13
2017-07-06T23:22:09.972Z,54.22
2017-07-06T23:24:37.115Z,54.36
2017-07-06T23:27:04.279Z,54.40
2017-07-06T23:29:31.407Z,54.79
2017-07-06T23:31:58.553Z,55.29
2017-07-06T23:34:25.737Z,55.34
2017-07-06T23:36:52.866Z,55.36
2017-07-06T23:40:56.051Z,55.60
2017-07-06T23:43:23.183Z,55.67
2017-07-06T23:45:50.339Z,55.53
2017-07-06T23:48:17.530Z,55.67
2017-07-06T23:53:56.892Z,55.77
2017-07-06T23:56:24.027Z,56.01
2017-07-06T23:58:51.164Z,56.42
